Bohemia, New York
Current Conditions -  °F | °C
As of 11:56 PM on Friday 24 Oct 2014 (Local Time) from KISP Reporting Station
Few Clouds Few Clouds  
Wind Chill: 50°   Ceiling: Unl
Heat Index: 50°   Visibility: 10mi
Dew Point: 46°   Wind: 5mph
Humidity: 86%   Direction: 300°WNW
Pressure: 29.81"   Gusts: NA
Location:  40.77°N, 73.1°W
Report Text: KISP 250356Z 30004KT 10SM FEW042 10/08 A2981 RMK AO2 SLP093 LAST AUGMENTED OBSERVATION UNTIL 1000Z T01000078
Loading
Personal Weather Stations






























Interactive Weather Map
Tropical Storm Tracking
New forecast layout! Learn more

10-Day Weather Forecast

Advertisements
Track Severe Weather on mobile